Terminal Aerodrome Forecast
Issued by NWS

Home | Current Version | Previous Version | Text Only | Print | Product List | Glossary Off
Versions: 1 2 3 4 5 6 7 8 9 10 11 12 13 14 15

000
FTUS43 KGRB 250525
TAFATW
TAF
KATW 250525Z 2506/2606 02008KT P6SM BKN008 BKN090
      TEMPO 2506/2510 SCT008 BKN040
     FM251000 01008KT P6SM BKN012
     FM251800 03009KT P6SM FEW020 BKN040
     FM252200 04008KT P6SM SCT090
     FM260300 08004KT P6SM SCT200=

USA.gov is the U.S. government's official web portal to all federal, state and local government web resources and services.